sensor_id;sensor_type;location;lat;lon;timestamp;P1;durP1;ratioP1;P2;durP2;ratioP2
54607;SDS011;40506;37.576;-122.034;2022-07-30T00:01:55;0.77;;;0.77;;
54607;SDS011;40506;37.576;-122.034;2022-07-30T00:03:56;1.95;;;1.13;;
54607;SDS011;40506;37.576;-122.034;2022-07-30T00:05:57;2.45;;;0.90;;
54607;SDS011;40506;37.576;-122.034;2022-07-30T00:07:59;2.65;;;1.45;;
54607;SDS011;40506;37.576;-122.034;2022-07-30T00:10:01;2.60;;;1.17;;
54607;SDS011;40506;37.576;-122.034;2022-07-30T00:12:06;1.58;;;0.88;;
54607;SDS011;40506;37.576;-122.034;2022-07-30T00:14:08;1.10;;;1.00;;
54607;SDS011;40506;37.576;-122.034;2022-07-30T00:16:09;1.30;;;0.97;;
54607;SDS011;40506;37.576;-122.034;2022-07-30T00:18:11;2.50;;;0.98;;
54607;SDS011;40506;37.576;-122.034;2022-07-30T00:20:12;1.55;;;1.05;;
54607;SDS011;40506;37.576;-122.034;2022-07-30T00:22:14;1.50;;;0.75;;
54607;SDS011;40506;37.576;-122.034;2022-07-30T00:24:15;0.65;;;0.65;;
54607;SDS011;40506;37.576;-122.034;2022-07-30T00:26:16;1.90;;;0.90;;
54607;SDS011;40506;37.576;-122.034;2022-07-30T00:28:17;0.70;;;0.68;;
54607;SDS011;40506;37.576;-122.034;2022-07-30T00:30:19;1.98;;;1.13;;
54607;SDS011;40506;37.576;-122.034;2022-07-30T00:32:20;0.70;;;0.70;;
54607;SDS011;40506;37.576;-122.034;2022-07-30T00:34:21;3.30;;;1.42;;
54607;SDS011;40506;37.576;-122.034;2022-07-30T00:36:22;1.42;;;0.90;;
54607;SDS011;40506;37.576;-122.034;2022-07-30T00:38:24;2.50;;;0.50;;
54607;SDS011;40506;37.576;-122.034;2022-07-30T00:40:25;3.90;;;1.00;;
54607;SDS011;40506;37.576;-122.034;2022-07-30T00:42:37;1.80;;;0.75;;
54607;SDS011;40506;37.576;-122.034;2022-07-30T00:44:38;1.52;;;1.10;;
54607;SDS011;40506;37.576;-122.034;2022-07-30T00:46:40;1.00;;;0.68;;
54607;SDS011;40506;37.576;-122.034;2022-07-30T00:48:41;0.82;;;0.82;;
54607;SDS011;40506;37.576;-122.034;2022-07-30T00:50:43;1.33;;;0.98;;
54607;SDS011;40506;37.576;-122.034;2022-07-30T00:52:44;2.08;;;0.73;;
54607;SDS011;40506;37.576;-122.034;2022-07-30T00:54:45;0.93;;;0.93;;
54607;SDS011;40506;37.576;-122.034;2022-07-30T00:56:47;3.13;;;1.02;;
54607;SDS011;40506;37.576;-122.034;2022-07-30T00:58:48;1.98;;;0.73;;
54607;SDS011;40506;37.576;-122.034;2022-07-30T01:00:50;1.33;;;0.88;;
54607;SDS011;40506;37.576;-122.034;2022-07-30T01:02:51;0.75;;;0.75;;
54607;SDS011;40506;37.576;-122.034;2022-07-30T01:04:52;1.08;;;0.80;;
54607;SDS011;40506;37.576;-122.034;2022-07-30T01:06:54;1.27;;;0.73;;
54607;SDS011;40506;37.576;-122.034;2022-07-30T01:08:55;1.27;;;0.98;;
54607;SDS011;40506;37.576;-122.034;2022-07-30T01:10:57;1.10;;;1.00;;
54607;SDS011;40506;37.576;-122.034;2022-07-30T01:12:58;1.08;;;0.90;;
54607;SDS011;40506;37.576;-122.034;2022-07-30T01:15:02;3.97;;;0.73;;
54607;SDS011;40506;37.576;-122.034;2022-07-30T01:17:05;1.35;;;1.05;;
54607;SDS011;40506;37.576;-122.034;2022-07-30T01:19:08;1.40;;;0.80;;
54607;SDS011;40506;37.576;-122.034;2022-07-30T01:21:50;1.05;;;0.90;;
54607;SDS011;40506;37.576;-122.034;2022-07-30T01:24:03;1.20;;;0.90;;
54607;SDS011;40506;37.576;-122.034;2022-07-30T01:26:21;1.40;;;0.90;;
54607;SDS011;40506;37.576;-122.034;2022-07-30T01:28:27;0.73;;;0.73;;
54607;SDS011;40506;37.576;-122.034;2022-07-30T01:30:33;0.95;;;0.95;;
54607;SDS011;40506;37.576;-122.034;2022-07-30T01:32:37;0.68;;;0.68;;
54607;SDS011;40506;37.576;-122.034;2022-07-30T01:34:42;0.75;;;0.63;;
54607;SDS011;40506;37.576;-122.034;2022-07-30T01:36:45;0.77;;;0.70;;
54607;SDS011;40506;37.576;-122.034;2022-07-30T01:38:46;2.05;;;0.75;;
54607;SDS011;40506;37.576;-122.034;2022-07-30T01:42:51;2.70;;;1.60;;
54607;SDS011;40506;37.576;-122.034;2022-07-30T01:44:56;1.13;;;0.77;;
54607;SDS011;40506;37.576;-122.034;2022-07-30T01:46:58;0.50;;;0.50;;
54607;SDS011;40506;37.576;-122.034;2022-07-30T01:49:01;3.85;;;1.15;;
54607;SDS011;40506;37.576;-122.034;2022-07-30T01:51:03;2.08;;;1.00;;
54607;SDS011;40506;37.576;-122.034;2022-07-30T01:53:08;1.13;;;0.75;;
54607;SDS011;40506;37.576;-122.034;2022-07-30T01:55:12;1.00;;;0.70;;
54607;SDS011;40506;37.576;-122.034;2022-07-30T01:57:17;1.48;;;1.38;;
54607;SDS011;40506;37.576;-122.034;2022-07-30T01:59:20;1.58;;;0.80;;
54607;SDS011;40506;37.576;-122.034;2022-07-30T02:01:23;1.38;;;0.88;;
54607;SDS011;40506;37.576;-122.034;2022-07-30T02:03:25;0.82;;;0.82;;
54607;SDS011;40506;37.576;-122.034;2022-07-30T02:05:27;1.98;;;0.82;;
54607;SDS011;40506;37.576;-122.034;2022-07-30T02:07:35;1.67;;;1.10;;
54607;SDS011;40506;37.576;-122.034;2022-07-30T02:10:04;0.70;;;0.70;;
54607;SDS011;40506;37.576;-122.034;2022-07-30T02:12:27;0.98;;;0.73;;
54607;SDS011;40506;37.576;-122.034;2022-07-30T02:14:38;1.45;;;0.90;;
54607;SDS011;40506;37.576;-122.034;2022-07-30T02:16:53;1.92;;;1.02;;
54607;SDS011;40506;37.576;-122.034;2022-07-30T02:19:01;1.17;;;0.85;;
54607;SDS011;40506;37.576;-122.034;2022-07-30T02:21:06;1.35;;;1.25;;
54607;SDS011;40506;37.576;-122.034;2022-07-30T02:23:09;1.00;;;0.90;;
54607;SDS011;40506;37.576;-122.034;2022-07-30T02:25:16;2.95;;;0.95;;
54607;SDS011;40506;37.576;-122.034;2022-07-30T02:27:26;1.80;;;1.17;;
54607;SDS011;40506;37.576;-122.034;2022-07-30T02:29:32;0.85;;;0.85;;
54607;SDS011;40506;37.576;-122.034;2022-07-30T02:31:35;1.30;;;0.93;;
54607;SDS011;40506;37.576;-122.034;2022-07-30T02:33:39;1.50;;;0.73;;
54607;SDS011;40506;37.576;-122.034;2022-07-30T02:35:42;0.60;;;0.47;;
54607;SDS011;40506;37.576;-122.034;2022-07-30T02:37:44;2.47;;;1.00;;
54607;SDS011;40506;37.576;-122.034;2022-07-30T02:39:48;0.98;;;0.88;;
54607;SDS011;40506;37.576;-122.034;2022-07-30T02:41:51;2.15;;;1.20;;
54607;SDS011;40506;37.576;-122.034;2022-07-30T02:43:56;0.93;;;0.93;;
54607;SDS011;40506;37.576;-122.034;2022-07-30T02:45:57;0.63;;;0.63;;
54607;SDS011;40506;37.576;-122.034;2022-07-30T02:48:01;1.20;;;0.65;;
54607;SDS011;40506;37.576;-122.034;2022-07-30T02:50:07;0.47;;;0.47;;
54607;SDS011;40506;37.576;-122.034;2022-07-30T02:52:10;2.72;;;0.82;;
54607;SDS011;40506;37.576;-122.034;2022-07-30T02:54:14;0.80;;;0.80;;
54607;SDS011;40506;37.576;-122.034;2022-07-30T02:56:18;1.00;;;0.77;;
54607;SDS011;40506;37.576;-122.034;2022-07-30T02:58:22;0.80;;;0.80;;
54607;SDS011;40506;37.576;-122.034;2022-07-30T03:00:25;0.50;;;0.50;;
54607;SDS011;40506;37.576;-122.034;2022-07-30T03:02:28;1.77;;;0.68;;
54607;SDS011;40506;37.576;-122.034;2022-07-30T03:04:31;0.80;;;0.68;;
54607;SDS011;40506;37.576;-122.034;2022-07-30T03:06:35;0.90;;;0.90;;
54607;SDS011;40506;37.576;-122.034;2022-07-30T03:08:37;0.50;;;0.50;;
54607;SDS011;40506;37.576;-122.034;2022-07-30T03:10:40;0.50;;;0.50;;
54607;SDS011;40506;37.576;-122.034;2022-07-30T03:12:44;0.70;;;0.70;;
54607;SDS011;40506;37.576;-122.034;2022-07-30T03:14:46;1.42;;;0.90;;
54607;SDS011;40506;37.576;-122.034;2022-07-30T03:16:50;0.73;;;0.73;;
54607;SDS011;40506;37.576;-122.034;2022-07-30T03:18:55;0.68;;;0.68;;
54607;SDS011;40506;37.576;-122.034;2022-07-30T03:21:01;1.35;;;0.60;;
54607;SDS011;40506;37.576;-122.034;2022-07-30T03:23:04;1.00;;;0.65;;
54607;SDS011;40506;37.576;-122.034;2022-07-30T03:25:09;0.88;;;0.88;;
54607;SDS011;40506;37.576;-122.034;2022-07-30T03:27:13;2.17;;;1.00;;
54607;SDS011;40506;37.576;-122.034;2022-07-30T03:29:15;1.65;;;0.60;;
54607;SDS011;40506;37.576;-122.034;2022-07-30T03:31:18;1.15;;;0.90;;
54607;SDS011;40506;37.576;-122.034;2022-07-30T03:33:20;1.63;;;0.85;;
54607;SDS011;40506;37.576;-122.034;2022-07-30T03:35:23;0.50;;;0.50;;
54607;SDS011;40506;37.576;-122.034;2022-07-30T03:37:25;0.52;;;0.45;;
54607;SDS011;40506;37.576;-122.034;2022-07-30T03:39:27;0.70;;;0.70;;
54607;SDS011;40506;37.576;-122.034;2022-07-30T03:41:31;3.08;;;0.77;;
54607;SDS011;40506;37.576;-122.034;2022-07-30T03:43:33;5.90;;;0.57;;
54607;SDS011;40506;37.576;-122.034;2022-07-30T03:45:36;0.50;;;0.50;;
54607;SDS011;40506;37.576;-122.034;2022-07-30T03:47:40;0.50;;;0.50;;
54607;SDS011;40506;37.576;-122.034;2022-07-30T03:49:44;0.40;;;0.40;;
54607;SDS011;40506;37.576;-122.034;2022-07-30T03:51:45;0.60;;;0.60;;
54607;SDS011;40506;37.576;-122.034;2022-07-30T03:53:47;0.93;;;0.47;;
54607;SDS011;40506;37.576;-122.034;2022-07-30T03:55:51;0.90;;;0.50;;
54607;SDS011;40506;37.576;-122.034;2022-07-30T03:57:52;1.63;;;0.60;;
54607;SDS011;40506;37.576;-122.034;2022-07-30T03:59:54;0.77;;;0.50;;
54607;SDS011;40506;37.576;-122.034;2022-07-30T04:02:02;0.50;;;0.50;;
54607;SDS011;40506;37.576;-122.034;2022-07-30T04:04:04;0.45;;;0.45;;
54607;SDS011;40506;37.576;-122.034;2022-07-30T04:06:07;0.30;;;0.30;;
54607;SDS011;40506;37.576;-122.034;2022-07-30T04:08:08;0.40;;;0.30;;
54607;SDS011;40506;37.576;-122.034;2022-07-30T04:10:09;0.40;;;0.40;;
54607;SDS011;40506;37.576;-122.034;2022-07-30T04:12:11;0.63;;;0.47;;
54607;SDS011;40506;37.576;-122.034;2022-07-30T04:14:13;0.68;;;0.68;;
54607;SDS011;40506;37.576;-122.034;2022-07-30T04:16:19;0.73;;;0.70;;
54607;SDS011;40506;37.576;-122.034;2022-07-30T04:18:26;0.40;;;0.40;;
54607;SDS011;40506;37.576;-122.034;2022-07-30T04:20:33;0.57;;;0.57;;
54607;SDS011;40506;37.576;-122.034;2022-07-30T04:22:40;0.60;;;0.60;;
54607;SDS011;40506;37.576;-122.034;2022-07-30T04:24:42;1.00;;;1.00;;
54607;SDS011;40506;37.576;-122.034;2022-07-30T04:26:44;0.90;;;0.40;;
54607;SDS011;40506;37.576;-122.034;2022-07-30T04:28:47;0.57;;;0.57;;
54607;SDS011;40506;37.576;-122.034;2022-07-30T04:30:48;1.27;;;0.32;;
54607;SDS011;40506;37.576;-122.034;2022-07-30T04:32:49;9.02;;;0.90;;
54607;SDS011;40506;37.576;-122.034;2022-07-30T04:34:52;0.47;;;0.47;;
54607;SDS011;40506;37.576;-122.034;2022-07-30T04:36:55;1.30;;;0.60;;
54607;SDS011;40506;37.576;-122.034;2022-07-30T04:38:57;0.70;;;0.70;;
54607;SDS011;40506;37.576;-122.034;2022-07-30T04:40:58;0.50;;;0.50;;
54607;SDS011;40506;37.576;-122.034;2022-07-30T04:43:00;0.30;;;0.30;;
54607;SDS011;40506;37.576;-122.034;2022-07-30T04:45:01;0.40;;;0.40;;
54607;SDS011;40506;37.576;-122.034;2022-07-30T04:47:03;0.30;;;0.30;;
54607;SDS011;40506;37.576;-122.034;2022-07-30T04:49:04;0.30;;;0.30;;
54607;SDS011;40506;37.576;-122.034;2022-07-30T04:51:08;0.50;;;0.50;;
54607;SDS011;40506;37.576;-122.034;2022-07-30T04:53:12;2.10;;;0.40;;
54607;SDS011;40506;37.576;-122.034;2022-07-30T04:57:16;0.47;;;0.47;;
54607;SDS011;40506;37.576;-122.034;2022-07-30T04:59:19;0.50;;;0.50;;
54607;SDS011;40506;37.576;-122.034;2022-07-30T05:01:25;1.17;;;1.00;;
54607;SDS011;40506;37.576;-122.034;2022-07-30T05:03:30;0.70;;;0.70;;
54607;SDS011;40506;37.576;-122.034;2022-07-30T05:05:34;1.25;;;0.63;;
54607;SDS011;40506;37.576;-122.034;2022-07-30T05:07:37;4.22;;;0.60;;
54607;SDS011;40506;37.576;-122.034;2022-07-30T05:09:38;0.82;;;0.60;;
54607;SDS011;40506;37.576;-122.034;2022-07-30T05:11:40;0.93;;;0.47;;
54607;SDS011;40506;37.576;-122.034;2022-07-30T05:13:42;0.35;;;0.35;;
54607;SDS011;40506;37.576;-122.034;2022-07-30T05:15:45;0.57;;;0.57;;
54607;SDS011;40506;37.576;-122.034;2022-07-30T05:17:46;0.40;;;0.40;;
54607;SDS011;40506;37.576;-122.034;2022-07-30T05:19:48;0.80;;;0.80;;
54607;SDS011;40506;37.576;-122.034;2022-07-30T05:21:50;0.45;;;0.45;;
54607;SDS011;40506;37.576;-122.034;2022-07-30T05:23:51;0.75;;;0.50;;
54607;SDS011;40506;37.576;-122.034;2022-07-30T05:25:53;2.47;;;0.35;;
54607;SDS011;40506;37.576;-122.034;2022-07-30T05:27:54;0.60;;;0.60;;
54607;SDS011;40506;37.576;-122.034;2022-07-30T05:29:57;0.45;;;0.45;;
54607;SDS011;40506;37.576;-122.034;2022-07-30T05:31:58;0.25;;;0.20;;
54607;SDS011;40506;37.576;-122.034;2022-07-30T05:33:59;0.30;;;0.30;;
54607;SDS011;40506;37.576;-122.034;2022-07-30T05:36:01;5.97;;;0.60;;
54607;SDS011;40506;37.576;-122.034;2022-07-30T05:38:02;0.68;;;0.68;;
54607;SDS011;40506;37.576;-122.034;2022-07-30T05:40:04;0.43;;;0.40;;
54607;SDS011;40506;37.576;-122.034;2022-07-30T05:42:05;1.25;;;0.52;;
54607;SDS011;40506;37.576;-122.034;2022-07-30T05:44:07;0.57;;;0.57;;
54607;SDS011;40506;37.576;-122.034;2022-07-30T05:46:08;3.85;;;0.90;;
54607;SDS011;40506;37.576;-122.034;2022-07-30T05:48:10;0.40;;;0.40;;
54607;SDS011;40506;37.576;-122.034;2022-07-30T05:50:11;0.55;;;0.55;;
54607;SDS011;40506;37.576;-122.034;2022-07-30T05:52:12;0.85;;;0.40;;
54607;SDS011;40506;37.576;-122.034;2022-07-30T05:54:14;0.20;;;0.20;;
54607;SDS011;40506;37.576;-122.034;2022-07-30T05:56:15;1.42;;;0.60;;
54607;SDS011;40506;37.576;-122.034;2022-07-30T05:58:17;0.50;;;0.50;;
54607;SDS011;40506;37.576;-122.034;2022-07-30T06:00:18;0.40;;;0.40;;
54607;SDS011;40506;37.576;-122.034;2022-07-30T06:02:19;0.30;;;0.30;;
54607;SDS011;40506;37.576;-122.034;2022-07-30T06:04:21;0.30;;;0.30;;
54607;SDS011;40506;37.576;-122.034;2022-07-30T06:06:22;0.40;;;0.40;;
54607;SDS011;40506;37.576;-122.034;2022-07-30T06:08:23;1.15;;;0.57;;
54607;SDS011;40506;37.576;-122.034;2022-07-30T06:10:25;7.25;;;0.60;;
54607;SDS011;40506;37.576;-122.034;2022-07-30T06:12:26;0.30;;;0.30;;
54607;SDS011;40506;37.576;-122.034;2022-07-30T06:14:28;0.30;;;0.30;;
54607;SDS011;40506;37.576;-122.034;2022-07-30T06:18:32;0.50;;;0.50;;
54607;SDS011;40506;37.576;-122.034;2022-07-30T06:20:33;0.47;;;0.47;;
54607;SDS011;40506;37.576;-122.034;2022-07-30T06:22:34;0.30;;;0.30;;
54607;SDS011;40506;37.576;-122.034;2022-07-30T06:24:35;0.57;;;0.57;;
54607;SDS011;40506;37.576;-122.034;2022-07-30T06:26:37;0.20;;;0.20;;
54607;SDS011;40506;37.576;-122.034;2022-07-30T06:28:38;0.30;;;0.30;;
54607;SDS011;40506;37.576;-122.034;2022-07-30T06:30:39;0.93;;;0.45;;
54607;SDS011;40506;37.576;-122.034;2022-07-30T06:32:41;0.40;;;0.40;;
54607;SDS011;40506;37.576;-122.034;2022-07-30T06:34:44;0.47;;;0.47;;
54607;SDS011;40506;37.576;-122.034;2022-07-30T06:36:46;0.20;;;0.20;;
54607;SDS011;40506;37.576;-122.034;2022-07-30T06:38:47;0.65;;;0.30;;
54607;SDS011;40506;37.576;-122.034;2022-07-30T06:40:49;0.20;;;0.20;;
54607;SDS011;40506;37.576;-122.034;2022-07-30T06:42:50;0.35;;;0.20;;
54607;SDS011;40506;37.576;-122.034;2022-07-30T06:44:51;0.70;;;0.40;;
54607;SDS011;40506;37.576;-122.034;2022-07-30T06:46:53;0.20;;;0.20;;
54607;SDS011;40506;37.576;-122.034;2022-07-30T06:48:54;0.43;;;0.43;;
54607;SDS011;40506;37.576;-122.034;2022-07-30T06:50:55;0.40;;;0.40;;
54607;SDS011;40506;37.576;-122.034;2022-07-30T06:52:57;0.45;;;0.40;;
54607;SDS011;40506;37.576;-122.034;2022-07-30T06:54:58;0.25;;;0.25;;
54607;SDS011;40506;37.576;-122.034;2022-07-30T06:56:59;0.32;;;0.32;;
54607;SDS011;40506;37.576;-122.034;2022-07-30T06:59:00;0.30;;;0.30;;
54607;SDS011;40506;37.576;-122.034;2022-07-30T07:01:01;0.30;;;0.30;;
54607;SDS011;40506;37.576;-122.034;2022-07-30T07:03:03;0.45;;;0.45;;
54607;SDS011;40506;37.576;-122.034;2022-07-30T07:05:04;0.50;;;0.50;;
54607;SDS011;40506;37.576;-122.034;2022-07-30T07:07:06;0.25;;;0.25;;
54607;SDS011;40506;37.576;-122.034;2022-07-30T07:09:07;0.25;;;0.25;;
54607;SDS011;40506;37.576;-122.034;2022-07-30T07:11:09;0.80;;;0.30;;
54607;SDS011;40506;37.576;-122.034;2022-07-30T07:13:10;0.45;;;0.38;;
54607;SDS011;40506;37.576;-122.034;2022-07-30T07:15:11;0.30;;;0.30;;
54607;SDS011;40506;37.576;-122.034;2022-07-30T07:17:12;0.40;;;0.40;;
54607;SDS011;40506;37.576;-122.034;2022-07-30T07:19:14;0.30;;;0.30;;
54607;SDS011;40506;37.576;-122.034;2022-07-30T07:21:15;0.10;;;0.10;;
54607;SDS011;40506;37.576;-122.034;2022-07-30T07:23:16;0.20;;;0.20;;
54607;SDS011;40506;37.576;-122.034;2022-07-30T07:25:18;0.30;;;0.30;;
54607;SDS011;40506;37.576;-122.034;2022-07-30T07:27:21;0.38;;;0.38;;
54607;SDS011;40506;37.576;-122.034;2022-07-30T07:29:23;0.30;;;0.30;;
54607;SDS011;40506;37.576;-122.034;2022-07-30T07:31:24;0.40;;;0.40;;
54607;SDS011;40506;37.576;-122.034;2022-07-30T07:33:25;0.43;;;0.43;;
54607;SDS011;40506;37.576;-122.034;2022-07-30T07:35:26;0.30;;;0.30;;
54607;SDS011;40506;37.576;-122.034;2022-07-30T07:37:27;0.22;;;0.22;;
54607;SDS011;40506;37.576;-122.034;2022-07-30T07:39:29;0.30;;;0.30;;
54607;SDS011;40506;37.576;-122.034;2022-07-30T07:41:30;0.28;;;0.28;;
54607;SDS011;40506;37.576;-122.034;2022-07-30T07:43:31;0.30;;;0.30;;
54607;SDS011;40506;37.576;-122.034;2022-07-30T07:45:33;0.20;;;0.20;;
54607;SDS011;40506;37.576;-122.034;2022-07-30T07:47:44;0.28;;;0.28;;
54607;SDS011;40506;37.576;-122.034;2022-07-30T07:49:46;0.40;;;0.40;;
54607;SDS011;40506;37.576;-122.034;2022-07-30T07:51:47;0.40;;;0.40;;
54607;SDS011;40506;37.576;-122.034;2022-07-30T07:53:48;0.20;;;0.20;;
54607;SDS011;40506;37.576;-122.034;2022-07-30T07:55:49;0.32;;;0.32;;
54607;SDS011;40506;37.576;-122.034;2022-07-30T07:57:51;0.30;;;0.10;;
54607;SDS011;40506;37.576;-122.034;2022-07-30T07:59:53;0.20;;;0.20;;
54607;SDS011;40506;37.576;-122.034;2022-07-30T08:01:54;0.20;;;0.20;;
54607;SDS011;40506;37.576;-122.034;2022-07-30T08:03:55;0.20;;;0.20;;
54607;SDS011;40506;37.576;-122.034;2022-07-30T08:05:57;0.20;;;0.20;;
54607;SDS011;40506;37.576;-122.034;2022-07-30T08:08:00;0.57;;;0.25;;
54607;SDS011;40506;37.576;-122.034;2022-07-30T08:10:02;0.80;;;0.20;;
54607;SDS011;40506;37.576;-122.034;2022-07-30T08:12:04;0.20;;;0.20;;
54607;SDS011;40506;37.576;-122.034;2022-07-30T08:14:05;0.40;;;0.40;;
54607;SDS011;40506;37.576;-122.034;2022-07-30T08:16:06;0.30;;;0.30;;
54607;SDS011;40506;37.576;-122.034;2022-07-30T08:18:09;0.20;;;0.20;;
54607;SDS011;40506;37.576;-122.034;2022-07-30T08:20:12;0.20;;;0.20;;
54607;SDS011;40506;37.576;-122.034;2022-07-30T08:22:15;0.30;;;0.30;;
54607;SDS011;40506;37.576;-122.034;2022-07-30T08:24:17;0.22;;;0.22;;
54607;SDS011;40506;37.576;-122.034;2022-07-30T08:26:18;0.30;;;0.30;;
54607;SDS011;40506;37.576;-122.034;2022-07-30T08:28:19;0.30;;;0.30;;
54607;SDS011;40506;37.576;-122.034;2022-07-30T08:30:20;0.35;;;0.35;;
54607;SDS011;40506;37.576;-122.034;2022-07-30T08:32:22;0.30;;;0.30;;
54607;SDS011;40506;37.576;-122.034;2022-07-30T08:34:23;0.20;;;0.20;;
54607;SDS011;40506;37.576;-122.034;2022-07-30T08:36:24;0.63;;;0.30;;
54607;SDS011;40506;37.576;-122.034;2022-07-30T08:38:25;0.30;;;0.30;;
54607;SDS011;40506;37.576;-122.034;2022-07-30T08:40:27;0.35;;;0.35;;
54607;SDS011;40506;37.576;-122.034;2022-07-30T08:42:33;0.32;;;0.32;;
54607;SDS011;40506;37.576;-122.034;2022-07-30T08:46:39;0.17;;;0.17;;
54607;SDS011;40506;37.576;-122.034;2022-07-30T08:48:42;0.20;;;0.20;;
54607;SDS011;40506;37.576;-122.034;2022-07-30T08:50:45;0.20;;;0.20;;
54607;SDS011;40506;37.576;-122.034;2022-07-30T08:52:46;0.30;;;0.30;;
54607;SDS011;40506;37.576;-122.034;2022-07-30T08:54:48;0.20;;;0.20;;
54607;SDS011;40506;37.576;-122.034;2022-07-30T08:56:49;0.25;;;0.25;;
54607;SDS011;40506;37.576;-122.034;2022-07-30T08:58:51;0.15;;;0.15;;
54607;SDS011;40506;37.576;-122.034;2022-07-30T09:00:52;0.50;;;0.50;;
54607;SDS011;40506;37.576;-122.034;2022-07-30T09:02:54;0.20;;;0.20;;
54607;SDS011;40506;37.576;-122.034;2022-07-30T09:04:56;3.47;;;0.35;;
54607;SDS011;40506;37.576;-122.034;2022-07-30T09:06:58;1.17;;;0.40;;
54607;SDS011;40506;37.576;-122.034;2022-07-30T09:11:01;0.30;;;0.30;;
54607;SDS011;40506;37.576;-122.034;2022-07-30T09:13:02;0.30;;;0.30;;
54607;SDS011;40506;37.576;-122.034;2022-07-30T09:15:05;0.35;;;0.35;;
54607;SDS011;40506;37.576;-122.034;2022-07-30T09:19:18;0.25;;;0.25;;
54607;SDS011;40506;37.576;-122.034;2022-07-30T09:21:23;0.30;;;0.30;;
54607;SDS011;40506;37.576;-122.034;2022-07-30T09:23:28;0.30;;;0.30;;
54607;SDS011;40506;37.576;-122.034;2022-07-30T09:27:47;0.20;;;0.20;;
54607;SDS011;40506;37.576;-122.034;2022-07-30T09:29:55;0.55;;;0.25;;
54607;SDS011;40506;37.576;-122.034;2022-07-30T09:32:05;0.40;;;0.40;;
54607;SDS011;40506;37.576;-122.034;2022-07-30T09:34:41;0.15;;;0.15;;
54607;SDS011;40506;37.576;-122.034;2022-07-30T09:36:37;0.30;;;0.30;;
54607;SDS011;40506;37.576;-122.034;2022-07-30T09:40:50;0.30;;;0.30;;
54607;SDS011;40506;37.576;-122.034;2022-07-30T09:43:06;0.17;;;0.17;;
54607;SDS011;40506;37.576;-122.034;2022-07-30T09:45:10;0.20;;;0.20;;
54607;SDS011;40506;37.576;-122.034;2022-07-30T09:47:36;1.65;;;0.77;;
54607;SDS011;40506;37.576;-122.034;2022-07-30T09:49:38;0.32;;;0.20;;
54607;SDS011;40506;37.576;-122.034;2022-07-30T09:51:41;0.82;;;0.32;;
54607;SDS011;40506;37.576;-122.034;2022-07-30T09:53:55;0.10;;;0.10;;
54607;SDS011;40506;37.576;-122.034;2022-07-30T09:55:58;0.15;;;0.15;;
54607;SDS011;40506;37.576;-122.034;2022-07-30T09:58:01;0.30;;;0.30;;
54607;SDS011;40506;37.576;-122.034;2022-07-30T10:00:17;0.10;;;0.10;;
54607;SDS011;40506;37.576;-122.034;2022-07-30T10:02:25;0.20;;;0.20;;
54607;SDS011;40506;37.576;-122.034;2022-07-30T10:04:30;0.30;;;0.30;;
54607;SDS011;40506;37.576;-122.034;2022-07-30T10:08:44;0.20;;;0.20;;
54607;SDS011;40506;37.576;-122.034;2022-07-30T10:10:47;0.40;;;0.40;;
54607;SDS011;40506;37.576;-122.034;2022-07-30T10:12:50;1.65;;;0.30;;
54607;SDS011;40506;37.576;-122.034;2022-07-30T10:14:53;0.20;;;0.20;;
54607;SDS011;40506;37.576;-122.034;2022-07-30T10:16:56;0.30;;;0.30;;
54607;SDS011;40506;37.576;-122.034;2022-07-30T10:18:58;0.20;;;0.20;;
54607;SDS011;40506;37.576;-122.034;2022-07-30T10:21:01;0.40;;;0.30;;
54607;SDS011;40506;37.576;-122.034;2022-07-30T10:23:05;1.23;;;0.22;;
54607;SDS011;40506;37.576;-122.034;2022-07-30T10:25:07;0.20;;;0.20;;
54607;SDS011;40506;37.576;-122.034;2022-07-30T10:27:09;0.32;;;0.32;;
54607;SDS011;40506;37.576;-122.034;2022-07-30T10:29:11;0.30;;;0.30;;
54607;SDS011;40506;37.576;-122.034;2022-07-30T10:31:14;0.30;;;0.30;;
54607;SDS011;40506;37.576;-122.034;2022-07-30T10:33:16;0.28;;;0.28;;
54607;SDS011;40506;37.576;-122.034;2022-07-30T10:35:18;0.20;;;0.20;;
54607;SDS011;40506;37.576;-122.034;2022-07-30T10:37:19;0.20;;;0.20;;
54607;SDS011;40506;37.576;-122.034;2022-07-30T10:39:24;0.20;;;0.20;;
54607;SDS011;40506;37.576;-122.034;2022-07-30T10:46:21;0.30;;;0.30;;
54607;SDS011;40506;37.576;-122.034;2022-07-30T10:48:32;0.10;;;0.10;;
54607;SDS011;40506;37.576;-122.034;2022-07-30T10:50:34;0.20;;;0.20;;
54607;SDS011;40506;37.576;-122.034;2022-07-30T10:52:59;0.30;;;0.30;;
54607;SDS011;40506;37.576;-122.034;2022-07-30T10:55:01;0.30;;;0.30;;
54607;SDS011;40506;37.576;-122.034;2022-07-30T10:59:08;0.30;;;0.30;;
54607;SDS011;40506;37.576;-122.034;2022-07-30T11:01:10;0.20;;;0.20;;
54607;SDS011;40506;37.576;-122.034;2022-07-30T11:03:21;0.20;;;0.20;;
54607;SDS011;40506;37.576;-122.034;2022-07-30T11:05:25;0.20;;;0.20;;
54607;SDS011;40506;37.576;-122.034;2022-07-30T11:07:28;0.10;;;0.10;;
54607;SDS011;40506;37.576;-122.034;2022-07-30T11:09:37;1.40;;;0.30;;
54607;SDS011;40506;37.576;-122.034;2022-07-30T11:11:42;0.10;;;0.10;;
54607;SDS011;40506;37.576;-122.034;2022-07-30T11:13:51;0.20;;;0.20;;
54607;SDS011;40506;37.576;-122.034;2022-07-30T11:16:01;0.20;;;0.20;;
54607;SDS011;40506;37.576;-122.034;2022-07-30T11:18:06;0.20;;;0.20;;
54607;SDS011;40506;37.576;-122.034;2022-07-30T11:20:09;0.20;;;0.20;;
54607;SDS011;40506;37.576;-122.034;2022-07-30T11:22:27;0.20;;;0.20;;
54607;SDS011;40506;37.576;-122.034;2022-07-30T11:24:44;0.15;;;0.15;;
54607;SDS011;40506;37.576;-122.034;2022-07-30T11:26:47;0.10;;;0.10;;
54607;SDS011;40506;37.576;-122.034;2022-07-30T11:28:49;0.20;;;0.20;;
54607;SDS011;40506;37.576;-122.034;2022-07-30T11:30:50;0.20;;;0.20;;
54607;SDS011;40506;37.576;-122.034;2022-07-30T11:32:53;0.10;;;0.10;;
54607;SDS011;40506;37.576;-122.034;2022-07-30T11:37:17;0.28;;;0.28;;
54607;SDS011;40506;37.576;-122.034;2022-07-30T11:39:19;0.30;;;0.30;;
54607;SDS011;40506;37.576;-122.034;2022-07-30T11:41:20;0.13;;;0.13;;
54607;SDS011;40506;37.576;-122.034;2022-07-30T11:43:23;0.20;;;0.20;;
54607;SDS011;40506;37.576;-122.034;2022-07-30T11:45:27;0.20;;;0.20;;
54607;SDS011;40506;37.576;-122.034;2022-07-30T11:47:29;0.22;;;0.22;;
54607;SDS011;40506;37.576;-122.034;2022-07-30T11:49:34;0.20;;;0.20;;
54607;SDS011;40506;37.576;-122.034;2022-07-30T11:51:39;0.20;;;0.20;;
54607;SDS011;40506;37.576;-122.034;2022-07-30T11:53:41;0.10;;;0.10;;
54607;SDS011;40506;37.576;-122.034;2022-07-30T11:55:51;0.20;;;0.20;;
54607;SDS011;40506;37.576;-122.034;2022-07-30T11:57:55;0.30;;;0.30;;
54607;SDS011;40506;37.576;-122.034;2022-07-30T11:59:57;0.30;;;0.30;;
54607;SDS011;40506;37.576;-122.034;2022-07-30T12:01:58;0.20;;;0.20;;
54607;SDS011;40506;37.576;-122.034;2022-07-30T12:04:01;0.17;;;0.17;;
54607;SDS011;40506;37.576;-122.034;2022-07-30T12:06:07;0.22;;;0.22;;
54607;SDS011;40506;37.576;-122.034;2022-07-30T12:08:10;0.20;;;0.20;;
54607;SDS011;40506;37.576;-122.034;2022-07-30T12:12:22;0.10;;;0.10;;
54607;SDS011;40506;37.576;-122.034;2022-07-30T12:14:24;0.10;;;0.10;;
54607;SDS011;40506;37.576;-122.034;2022-07-30T12:16:25;0.20;;;0.20;;
54607;SDS011;40506;37.576;-122.034;2022-07-30T12:18:28;0.15;;;0.15;;
54607;SDS011;40506;37.576;-122.034;2022-07-30T12:20:29;0.35;;;0.35;;
54607;SDS011;40506;37.576;-122.034;2022-07-30T12:22:31;0.17;;;0.17;;